sensor_id;sensor_type;location;lat;lon;timestamp;P1;durP1;ratioP1;P2;durP2;ratioP2
739;SDS011;354;42.694;23.336;2023-07-20T00:01:19;9.27;;;5.50;;
739;SDS011;354;42.694;23.336;2023-07-20T00:03:44;7.95;;;5.90;;
739;SDS011;354;42.694;23.336;2023-07-20T00:06:13;10.75;;;6.15;;
739;SDS011;354;42.694;23.336;2023-07-20T00:08:38;6.18;;;5.28;;
739;SDS011;354;42.694;23.336;2023-07-20T00:11:04;8.77;;;5.82;;
739;SDS011;354;42.694;23.336;2023-07-20T00:13:29;7.35;;;6.07;;
739;SDS011;354;42.694;23.336;2023-07-20T00:15:54;8.25;;;5.50;;
739;SDS011;354;42.694;23.336;2023-07-20T00:18:20;7.03;;;5.18;;
739;SDS011;354;42.694;23.336;2023-07-20T00:20:46;6.10;;;5.50;;
739;SDS011;354;42.694;23.336;2023-07-20T00:23:12;8.55;;;6.05;;
739;SDS011;354;42.694;23.336;2023-07-20T00:25:37;5.97;;;5.43;;
739;SDS011;354;42.694;23.336;2023-07-20T00:28:02;11.15;;;5.45;;
739;SDS011;354;42.694;23.336;2023-07-20T00:30:28;6.38;;;5.50;;
739;SDS011;354;42.694;23.336;2023-07-20T00:32:53;9.80;;;6.00;;
739;SDS011;354;42.694;23.336;2023-07-20T00:35:19;7.13;;;5.22;;
739;SDS011;354;42.694;23.336;2023-07-20T00:37:44;8.07;;;5.38;;
739;SDS011;354;42.694;23.336;2023-07-20T00:40:09;9.77;;;5.50;;
739;SDS011;354;42.694;23.336;2023-07-20T00:42:35;9.85;;;6.10;;
739;SDS011;354;42.694;23.336;2023-07-20T00:45:01;9.57;;;6.13;;
739;SDS011;354;42.694;23.336;2023-07-20T00:47:27;6.93;;;5.85;;
739;SDS011;354;42.694;23.336;2023-07-20T00:49:52;7.70;;;6.00;;
739;SDS011;354;42.694;23.336;2023-07-20T00:52:20;7.75;;;6.20;;
739;SDS011;354;42.694;23.336;2023-07-20T00:54:48;7.93;;;6.60;;
739;SDS011;354;42.694;23.336;2023-07-20T00:57:15;7.20;;;6.50;;
739;SDS011;354;42.694;23.336;2023-07-20T00:59:41;7.43;;;6.72;;
739;SDS011;354;42.694;23.336;2023-07-20T01:02:06;8.95;;;6.78;;
739;SDS011;354;42.694;23.336;2023-07-20T01:04:32;8.07;;;6.10;;
739;SDS011;354;42.694;23.336;2023-07-20T01:07:00;8.30;;;5.70;;
739;SDS011;354;42.694;23.336;2023-07-20T01:09:48;8.88;;;6.40;;
739;SDS011;354;42.694;23.336;2023-07-20T01:12:27;8.50;;;6.03;;
739;SDS011;354;42.694;23.336;2023-07-20T01:14:58;7.25;;;6.32;;
739;SDS011;354;42.694;23.336;2023-07-20T01:17:24;7.30;;;5.90;;
739;SDS011;354;42.694;23.336;2023-07-20T01:19:49;7.03;;;6.20;;
739;SDS011;354;42.694;23.336;2023-07-20T01:32:47;7.47;;;6.80;;
739;SDS011;354;42.694;23.336;2023-07-20T01:35:13;8.57;;;6.65;;
739;SDS011;354;42.694;23.336;2023-07-20T01:37:42;7.93;;;5.90;;
739;SDS011;354;42.694;23.336;2023-07-20T01:40:10;9.02;;;6.63;;
739;SDS011;354;42.694;23.336;2023-07-20T01:42:36;8.50;;;7.38;;
739;SDS011;354;42.694;23.336;2023-07-20T01:45:01;13.43;;;6.80;;
739;SDS011;354;42.694;23.336;2023-07-20T01:47:27;10.40;;;6.47;;
739;SDS011;354;42.694;23.336;2023-07-20T01:49:52;7.07;;;6.38;;
739;SDS011;354;42.694;23.336;2023-07-20T01:52:17;10.10;;;6.43;;
739;SDS011;354;42.694;23.336;2023-07-20T01:54:43;8.10;;;6.38;;
739;SDS011;354;42.694;23.336;2023-07-20T01:57:08;10.88;;;6.20;;
739;SDS011;354;42.694;23.336;2023-07-20T01:59:33;7.80;;;6.28;;
739;SDS011;354;42.694;23.336;2023-07-20T02:01:59;7.50;;;6.60;;
739;SDS011;354;42.694;23.336;2023-07-20T02:04:24;7.40;;;6.68;;
739;SDS011;354;42.694;23.336;2023-07-20T02:06:50;7.82;;;6.82;;
739;SDS011;354;42.694;23.336;2023-07-20T02:09:15;12.30;;;6.43;;
739;SDS011;354;42.694;23.336;2023-07-20T02:11:40;7.15;;;6.45;;
739;SDS011;354;42.694;23.336;2023-07-20T02:14:06;11.82;;;6.95;;
739;SDS011;354;42.694;23.336;2023-07-20T02:16:31;11.57;;;7.18;;
739;SDS011;354;42.694;23.336;2023-07-20T02:18:57;8.88;;;6.72;;
739;SDS011;354;42.694;23.336;2023-07-20T02:21:23;7.85;;;6.78;;
739;SDS011;354;42.694;23.336;2023-07-20T02:23:48;7.70;;;6.80;;
739;SDS011;354;42.694;23.336;2023-07-20T02:26:14;9.65;;;7.15;;
739;SDS011;354;42.694;23.336;2023-07-20T02:28:39;9.38;;;6.97;;
739;SDS011;354;42.694;23.336;2023-07-20T02:31:06;7.78;;;6.97;;
739;SDS011;354;42.694;23.336;2023-07-20T02:33:31;6.90;;;6.30;;
739;SDS011;354;42.694;23.336;2023-07-20T02:35:57;12.93;;;6.78;;
739;SDS011;354;42.694;23.336;2023-07-20T02:38:22;8.70;;;6.78;;
739;SDS011;354;42.694;23.336;2023-07-20T02:40:47;10.40;;;7.60;;
739;SDS011;354;42.694;23.336;2023-07-20T02:43:13;10.52;;;6.80;;
739;SDS011;354;42.694;23.336;2023-07-20T02:45:41;9.77;;;6.85;;
739;SDS011;354;42.694;23.336;2023-07-20T02:48:07;7.88;;;6.57;;
739;SDS011;354;42.694;23.336;2023-07-20T02:50:33;12.65;;;7.07;;
739;SDS011;354;42.694;23.336;2023-07-20T02:52:59;13.55;;;7.50;;
739;SDS011;354;42.694;23.336;2023-07-20T02:55:25;12.98;;;7.43;;
739;SDS011;354;42.694;23.336;2023-07-20T02:57:50;9.30;;;7.47;;
739;SDS011;354;42.694;23.336;2023-07-20T03:00:16;9.27;;;7.53;;
739;SDS011;354;42.694;23.336;2023-07-20T03:02:41;8.30;;;7.40;;
739;SDS011;354;42.694;23.336;2023-07-20T03:05:07;10.80;;;7.22;;
739;SDS011;354;42.694;23.336;2023-07-20T03:07:33;8.35;;;6.70;;
739;SDS011;354;42.694;23.336;2023-07-20T03:09:58;8.13;;;7.25;;
739;SDS011;354;42.694;23.336;2023-07-20T03:12:24;9.85;;;7.15;;
739;SDS011;354;42.694;23.336;2023-07-20T03:14:49;9.55;;;7.60;;
739;SDS011;354;42.694;23.336;2023-07-20T03:17:15;10.95;;;7.90;;
739;SDS011;354;42.694;23.336;2023-07-20T03:19:40;14.88;;;10.57;;
739;SDS011;354;42.694;23.336;2023-07-20T03:22:06;10.70;;;7.47;;
739;SDS011;354;42.694;23.336;2023-07-20T03:24:32;9.25;;;7.13;;
739;SDS011;354;42.694;23.336;2023-07-20T03:26:58;10.93;;;7.57;;
739;SDS011;354;42.694;23.336;2023-07-20T03:29:23;9.85;;;6.95;;
739;SDS011;354;42.694;23.336;2023-07-20T03:31:48;10.55;;;7.07;;
739;SDS011;354;42.694;23.336;2023-07-20T03:34:14;10.65;;;7.00;;
739;SDS011;354;42.694;23.336;2023-07-20T03:36:39;9.88;;;7.78;;
739;SDS011;354;42.694;23.336;2023-07-20T03:39:05;14.95;;;7.88;;
739;SDS011;354;42.694;23.336;2023-07-20T03:41:30;10.75;;;6.57;;
739;SDS011;354;42.694;23.336;2023-07-20T03:43:55;10.48;;;7.50;;
739;SDS011;354;42.694;23.336;2023-07-20T03:46:21;7.78;;;6.68;;
739;SDS011;354;42.694;23.336;2023-07-20T03:48:46;12.10;;;7.45;;
739;SDS011;354;42.694;23.336;2023-07-20T03:51:12;7.40;;;6.28;;
739;SDS011;354;42.694;23.336;2023-07-20T03:53:37;9.32;;;7.32;;
739;SDS011;354;42.694;23.336;2023-07-20T03:56:03;12.13;;;7.40;;
739;SDS011;354;42.694;23.336;2023-07-20T03:58:29;8.80;;;7.00;;
739;SDS011;354;42.694;23.336;2023-07-20T04:00:56;12.73;;;8.10;;
739;SDS011;354;42.694;23.336;2023-07-20T04:03:23;13.93;;;7.50;;
739;SDS011;354;42.694;23.336;2023-07-20T04:05:51;13.85;;;7.32;;
739;SDS011;354;42.694;23.336;2023-07-20T04:08:18;12.75;;;7.78;;
739;SDS011;354;42.694;23.336;2023-07-20T04:10:44;14.05;;;9.15;;
739;SDS011;354;42.694;23.336;2023-07-20T04:13:09;9.25;;;7.28;;
739;SDS011;354;42.694;23.336;2023-07-20T04:15:35;9.05;;;7.22;;
739;SDS011;354;42.694;23.336;2023-07-20T04:18:00;9.70;;;7.85;;
739;SDS011;354;42.694;23.336;2023-07-20T04:20:26;11.80;;;9.23;;
739;SDS011;354;42.694;23.336;2023-07-20T04:22:51;8.20;;;7.47;;
739;SDS011;354;42.694;23.336;2023-07-20T04:25:19;9.52;;;7.40;;
739;SDS011;354;42.694;23.336;2023-07-20T04:27:45;8.80;;;7.95;;
739;SDS011;354;42.694;23.336;2023-07-20T04:30:11;15.82;;;7.57;;
739;SDS011;354;42.694;23.336;2023-07-20T04:32:38;11.95;;;8.13;;
739;SDS011;354;42.694;23.336;2023-07-20T04:35:09;9.35;;;8.45;;
739;SDS011;354;42.694;23.336;2023-07-20T04:37:34;10.18;;;8.65;;
739;SDS011;354;42.694;23.336;2023-07-20T04:40:00;14.10;;;7.65;;
739;SDS011;354;42.694;23.336;2023-07-20T04:42:26;11.85;;;8.40;;
739;SDS011;354;42.694;23.336;2023-07-20T04:44:51;10.98;;;7.45;;
739;SDS011;354;42.694;23.336;2023-07-20T04:47:16;10.43;;;7.55;;
739;SDS011;354;42.694;23.336;2023-07-20T04:49:42;11.85;;;7.85;;
739;SDS011;354;42.694;23.336;2023-07-20T04:52:07;14.02;;;7.93;;
739;SDS011;354;42.694;23.336;2023-07-20T04:54:33;11.55;;;8.70;;
739;SDS011;354;42.694;23.336;2023-07-20T04:56:58;10.70;;;7.32;;
739;SDS011;354;42.694;23.336;2023-07-20T04:59:23;10.27;;;6.90;;
739;SDS011;354;42.694;23.336;2023-07-20T05:01:49;8.48;;;6.95;;
739;SDS011;354;42.694;23.336;2023-07-20T05:04:14;9.70;;;7.22;;
739;SDS011;354;42.694;23.336;2023-07-20T05:06:39;13.82;;;8.23;;
739;SDS011;354;42.694;23.336;2023-07-20T05:09:05;11.23;;;7.90;;
739;SDS011;354;42.694;23.336;2023-07-20T05:11:31;14.98;;;8.93;;
739;SDS011;354;42.694;23.336;2023-07-20T05:13:57;12.43;;;6.60;;
739;SDS011;354;42.694;23.336;2023-07-20T05:16:22;10.05;;;8.23;;
739;SDS011;354;42.694;23.336;2023-07-20T05:18:47;14.88;;;7.88;;
739;SDS011;354;42.694;23.336;2023-07-20T05:21:13;9.45;;;7.30;;
739;SDS011;354;42.694;23.336;2023-07-20T05:23:38;9.95;;;7.50;;
739;SDS011;354;42.694;23.336;2023-07-20T05:26:04;9.68;;;7.53;;
739;SDS011;354;42.694;23.336;2023-07-20T05:28:29;10.05;;;6.80;;
739;SDS011;354;42.694;23.336;2023-07-20T05:30:55;11.48;;;7.70;;
739;SDS011;354;42.694;23.336;2023-07-20T05:33:20;12.65;;;8.32;;
739;SDS011;354;42.694;23.336;2023-07-20T05:35:46;12.63;;;8.02;;
739;SDS011;354;42.694;23.336;2023-07-20T05:38:12;10.27;;;7.72;;
739;SDS011;354;42.694;23.336;2023-07-20T05:40:39;12.82;;;7.95;;
739;SDS011;354;42.694;23.336;2023-07-20T05:43:05;14.48;;;7.75;;
739;SDS011;354;42.694;23.336;2023-07-20T05:45:31;12.77;;;7.45;;
739;SDS011;354;42.694;23.336;2023-07-20T05:47:56;9.75;;;7.53;;
739;SDS011;354;42.694;23.336;2023-07-20T05:50:22;14.55;;;7.68;;
739;SDS011;354;42.694;23.336;2023-07-20T05:52:47;10.95;;;8.25;;
739;SDS011;354;42.694;23.336;2023-07-20T05:55:13;20.80;;;15.32;;
739;SDS011;354;42.694;23.336;2023-07-20T05:57:38;9.77;;;8.18;;
739;SDS011;354;42.694;23.336;2023-07-20T06:00:07;13.52;;;8.50;;
739;SDS011;354;42.694;23.336;2023-07-20T06:02:33;12.65;;;8.60;;
739;SDS011;354;42.694;23.336;2023-07-20T06:04:58;13.32;;;8.40;;
739;SDS011;354;42.694;23.336;2023-07-20T06:07:24;10.90;;;8.23;;
739;SDS011;354;42.694;23.336;2023-07-20T06:09:49;9.82;;;7.78;;
739;SDS011;354;42.694;23.336;2023-07-20T06:12:15;8.32;;;6.70;;
739;SDS011;354;42.694;23.336;2023-07-20T06:14:40;9.05;;;8.23;;
739;SDS011;354;42.694;23.336;2023-07-20T06:17:05;17.77;;;9.88;;
739;SDS011;354;42.694;23.336;2023-07-20T06:19:31;11.27;;;8.27;;
739;SDS011;354;42.694;23.336;2023-07-20T06:21:56;13.82;;;7.35;;
739;SDS011;354;42.694;23.336;2023-07-20T06:24:21;9.15;;;7.85;;
739;SDS011;354;42.694;23.336;2023-07-20T06:26:47;8.85;;;7.65;;
739;SDS011;354;42.694;23.336;2023-07-20T06:29:12;8.52;;;7.53;;
739;SDS011;354;42.694;23.336;2023-07-20T06:31:38;10.90;;;8.02;;
739;SDS011;354;42.694;23.336;2023-07-20T06:34:03;12.45;;;8.90;;
739;SDS011;354;42.694;23.336;2023-07-20T06:36:29;9.43;;;7.80;;
739;SDS011;354;42.694;23.336;2023-07-20T06:38:55;12.35;;;9.23;;
739;SDS011;354;42.694;23.336;2023-07-20T06:41:21;12.60;;;9.10;;
739;SDS011;354;42.694;23.336;2023-07-20T06:43:47;12.27;;;9.15;;
739;SDS011;354;42.694;23.336;2023-07-20T06:46:12;12.35;;;9.02;;
739;SDS011;354;42.694;23.336;2023-07-20T06:48:38;13.10;;;9.23;;
739;SDS011;354;42.694;23.336;2023-07-20T06:51:03;13.93;;;8.63;;
739;SDS011;354;42.694;23.336;2023-07-20T06:53:29;11.35;;;9.32;;
739;SDS011;354;42.694;23.336;2023-07-20T06:55:55;15.95;;;9.98;;
739;SDS011;354;42.694;23.336;2023-07-20T06:58:23;12.23;;;9.15;;
739;SDS011;354;42.694;23.336;2023-07-20T07:00:50;12.48;;;9.20;;
739;SDS011;354;42.694;23.336;2023-07-20T07:03:15;11.05;;;9.82;;
739;SDS011;354;42.694;23.336;2023-07-20T07:05:41;12.48;;;8.20;;
739;SDS011;354;42.694;23.336;2023-07-20T07:08:06;11.90;;;9.95;;
739;SDS011;354;42.694;23.336;2023-07-20T07:10:32;11.80;;;8.13;;
739;SDS011;354;42.694;23.336;2023-07-20T07:12:59;10.75;;;8.30;;
739;SDS011;354;42.694;23.336;2023-07-20T07:15:25;13.93;;;9.00;;
739;SDS011;354;42.694;23.336;2023-07-20T07:17:51;11.93;;;8.07;;
739;SDS011;354;42.694;23.336;2023-07-20T07:20:16;7.85;;;7.18;;
739;SDS011;354;42.694;23.336;2023-07-20T07:22:42;10.45;;;8.05;;
739;SDS011;354;42.694;23.336;2023-07-20T07:25:09;13.85;;;8.10;;
739;SDS011;354;42.694;23.336;2023-07-20T07:27:35;12.93;;;8.13;;
739;SDS011;354;42.694;23.336;2023-07-20T07:30:00;15.57;;;8.23;;
739;SDS011;354;42.694;23.336;2023-07-20T07:32:26;11.43;;;7.90;;
739;SDS011;354;42.694;23.336;2023-07-20T07:34:51;10.35;;;7.13;;
739;SDS011;354;42.694;23.336;2023-07-20T07:37:17;9.90;;;7.78;;
739;SDS011;354;42.694;23.336;2023-07-20T07:39:44;10.18;;;7.55;;
739;SDS011;354;42.694;23.336;2023-07-20T07:42:10;10.40;;;7.50;;
739;SDS011;354;42.694;23.336;2023-07-20T07:44:35;13.07;;;9.00;;
739;SDS011;354;42.694;23.336;2023-07-20T07:47:00;15.32;;;8.43;;
739;SDS011;354;42.694;23.336;2023-07-20T07:49:26;10.13;;;7.88;;
739;SDS011;354;42.694;23.336;2023-07-20T07:51:52;12.98;;;8.40;;
739;SDS011;354;42.694;23.336;2023-07-20T07:54:18;10.95;;;7.30;;
739;SDS011;354;42.694;23.336;2023-07-20T07:56:43;9.90;;;7.28;;
739;SDS011;354;42.694;23.336;2023-07-20T07:59:09;10.90;;;7.85;;
739;SDS011;354;42.694;23.336;2023-07-20T08:01:35;11.68;;;8.07;;
739;SDS011;354;42.694;23.336;2023-07-20T08:04:00;12.30;;;9.23;;
739;SDS011;354;42.694;23.336;2023-07-20T08:06:25;15.73;;;8.95;;
739;SDS011;354;42.694;23.336;2023-07-20T08:08:51;12.05;;;8.75;;
739;SDS011;354;42.694;23.336;2023-07-20T08:11:16;12.23;;;7.25;;
739;SDS011;354;42.694;23.336;2023-07-20T08:13:43;16.13;;;8.50;;
739;SDS011;354;42.694;23.336;2023-07-20T08:16:08;14.63;;;8.40;;
739;SDS011;354;42.694;23.336;2023-07-20T08:18:34;8.80;;;7.25;;
739;SDS011;354;42.694;23.336;2023-07-20T08:20:59;10.10;;;7.60;;
739;SDS011;354;42.694;23.336;2023-07-20T08:23:25;17.77;;;8.57;;
739;SDS011;354;42.694;23.336;2023-07-20T08:25:52;13.80;;;7.75;;
739;SDS011;354;42.694;23.336;2023-07-20T08:28:18;16.83;;;7.57;;
739;SDS011;354;42.694;23.336;2023-07-20T08:30:44;11.32;;;7.47;;
739;SDS011;354;42.694;23.336;2023-07-20T08:33:13;12.55;;;6.20;;
739;SDS011;354;42.694;23.336;2023-07-20T08:35:40;7.47;;;6.45;;
739;SDS011;354;42.694;23.336;2023-07-20T08:38:06;11.27;;;6.57;;
739;SDS011;354;42.694;23.336;2023-07-20T08:40:33;8.43;;;6.28;;
739;SDS011;354;42.694;23.336;2023-07-20T08:42:59;12.85;;;6.50;;
739;SDS011;354;42.694;23.336;2023-07-20T08:45:28;7.35;;;5.97;;
739;SDS011;354;42.694;23.336;2023-07-20T08:47:55;9.90;;;6.40;;
739;SDS011;354;42.694;23.336;2023-07-20T08:50:21;12.93;;;6.63;;
739;SDS011;354;42.694;23.336;2023-07-20T08:52:48;13.00;;;6.72;;
739;SDS011;354;42.694;23.336;2023-07-20T08:55:17;9.60;;;6.32;;
739;SDS011;354;42.694;23.336;2023-07-20T08:57:44;10.43;;;6.43;;
739;SDS011;354;42.694;23.336;2023-07-20T09:00:14;9.57;;;6.55;;
739;SDS011;354;42.694;23.336;2023-07-20T09:02:42;8.00;;;7.18;;
739;SDS011;354;42.694;23.336;2023-07-20T09:05:10;11.55;;;6.53;;
739;SDS011;354;42.694;23.336;2023-07-20T09:07:35;7.15;;;6.07;;
739;SDS011;354;42.694;23.336;2023-07-20T09:10:02;7.80;;;5.93;;
739;SDS011;354;42.694;23.336;2023-07-20T09:12:31;15.63;;;7.35;;
739;SDS011;354;42.694;23.336;2023-07-20T09:15:00;7.45;;;5.80;;
739;SDS011;354;42.694;23.336;2023-07-20T09:17:26;11.25;;;6.25;;
739;SDS011;354;42.694;23.336;2023-07-20T09:19:52;7.90;;;6.65;;
739;SDS011;354;42.694;23.336;2023-07-20T09:22:17;7.97;;;6.03;;
739;SDS011;354;42.694;23.336;2023-07-20T09:24:43;9.00;;;6.60;;
739;SDS011;354;42.694;23.336;2023-07-20T09:27:08;8.55;;;6.80;;
739;SDS011;354;42.694;23.336;2023-07-20T09:29:42;9.90;;;6.18;;
739;SDS011;354;42.694;23.336;2023-07-20T09:32:13;9.15;;;6.68;;
739;SDS011;354;42.694;23.336;2023-07-20T09:34:44;6.07;;;5.53;;
739;SDS011;354;42.694;23.336;2023-07-20T09:37:09;9.00;;;5.72;;
739;SDS011;354;42.694;23.336;2023-07-20T09:39:42;9.70;;;6.20;;
739;SDS011;354;42.694;23.336;2023-07-20T09:42:11;7.30;;;5.70;;
739;SDS011;354;42.694;23.336;2023-07-20T09:44:38;8.05;;;6.57;;
739;SDS011;354;42.694;23.336;2023-07-20T09:47:04;9.45;;;6.10;;
739;SDS011;354;42.694;23.336;2023-07-20T09:49:30;9.90;;;6.35;;
739;SDS011;354;42.694;23.336;2023-07-20T09:51:57;6.63;;;6.03;;
739;SDS011;354;42.694;23.336;2023-07-20T09:54:22;6.63;;;5.95;;
739;SDS011;354;42.694;23.336;2023-07-20T09:56:49;7.53;;;6.60;;
739;SDS011;354;42.694;23.336;2023-07-20T09:59:16;7.63;;;5.63;;
739;SDS011;354;42.694;23.336;2023-07-20T10:01:41;11.43;;;6.80;;
739;SDS011;354;42.694;23.336;2023-07-20T10:04:09;15.32;;;6.50;;
739;SDS011;354;42.694;23.336;2023-07-20T10:06:37;9.00;;;6.07;;
739;SDS011;354;42.694;23.336;2023-07-20T10:09:07;7.53;;;5.55;;
739;SDS011;354;42.694;23.336;2023-07-20T10:11:35;8.45;;;5.72;;
739;SDS011;354;42.694;23.336;2023-07-20T10:14:04;10.77;;;5.60;;
739;SDS011;354;42.694;23.336;2023-07-20T10:16:36;8.63;;;7.15;;
739;SDS011;354;42.694;23.336;2023-07-20T10:22:07;7.03;;;6.18;;
739;SDS011;354;42.694;23.336;2023-07-20T10:24:49;11.57;;;10.32;;
739;SDS011;354;42.694;23.336;2023-07-20T10:27:18;7.80;;;5.60;;
739;SDS011;354;42.694;23.336;2023-07-20T10:29:45;10.15;;;5.45;;
739;SDS011;354;42.694;23.336;2023-07-20T10:32:11;8.95;;;5.80;;
739;SDS011;354;42.694;23.336;2023-07-20T10:34:37;9.55;;;6.28;;
739;SDS011;354;42.694;23.336;2023-07-20T10:37:03;7.97;;;6.90;;
739;SDS011;354;42.694;23.336;2023-07-20T10:39:30;6.53;;;5.93;;
739;SDS011;354;42.694;23.336;2023-07-20T10:42:31;8.45;;;6.55;;
739;SDS011;354;42.694;23.336;2023-07-20T10:44:48;10.43;;;8.43;;
739;SDS011;354;42.694;23.336;2023-07-20T10:47:16;6.45;;;5.80;;
739;SDS011;354;42.694;23.336;2023-07-20T10:50:15;8.65;;;6.07;;
739;SDS011;354;42.694;23.336;2023-07-20T10:52:36;7.28;;;6.43;;
739;SDS011;354;42.694;23.336;2023-07-20T10:55:15;11.52;;;7.90;;
739;SDS011;354;42.694;23.336;2023-07-20T10:57:41;7.13;;;6.10;;
739;SDS011;354;42.694;23.336;2023-07-20T11:00:11;9.70;;;6.45;;
739;SDS011;354;42.694;23.336;2023-07-20T11:02:48;10.52;;;7.05;;
739;SDS011;354;42.694;23.336;2023-07-20T11:05:33;7.55;;;6.72;;
739;SDS011;354;42.694;23.336;2023-07-20T11:08:11;6.50;;;5.90;;
739;SDS011;354;42.694;23.336;2023-07-20T11:10:37;8.20;;;6.20;;
739;SDS011;354;42.694;23.336;2023-07-20T11:15:46;6.30;;;5.78;;
739;SDS011;354;42.694;23.336;2023-07-20T11:18:12;6.80;;;6.15;;
739;SDS011;354;42.694;23.336;2023-07-20T11:20:38;9.07;;;6.45;;
739;SDS011;354;42.694;23.336;2023-07-20T11:23:03;7.65;;;6.95;;
739;SDS011;354;42.694;23.336;2023-07-20T11:25:37;10.35;;;7.75;;
739;SDS011;354;42.694;23.336;2023-07-20T11:28:06;7.32;;;6.63;;
739;SDS011;354;42.694;23.336;2023-07-20T11:30:33;8.32;;;6.00;;
739;SDS011;354;42.694;23.336;2023-07-20T11:32:59;7.25;;;6.55;;
739;SDS011;354;42.694;23.336;2023-07-20T11:35:24;7.53;;;6.50;;
739;SDS011;354;42.694;23.336;2023-07-20T11:37:49;7.82;;;6.55;;
739;SDS011;354;42.694;23.336;2023-07-20T11:40:15;7.93;;;6.10;;
739;SDS011;354;42.694;23.336;2023-07-20T11:42:40;9.27;;;6.38;;
739;SDS011;354;42.694;23.336;2023-07-20T11:45:06;7.80;;;6.95;;
739;SDS011;354;42.694;23.336;2023-07-20T11:47:32;11.85;;;7.68;;
739;SDS011;354;42.694;23.336;2023-07-20T11:49:58;7.47;;;6.78;;
739;SDS011;354;42.694;23.336;2023-07-20T11:52:28;9.95;;;6.85;;
739;SDS011;354;42.694;23.336;2023-07-20T11:54:54;8.65;;;7.22;;
739;SDS011;354;42.694;23.336;2023-07-20T11:57:20;7.03;;;6.32;;
739;SDS011;354;42.694;23.336;2023-07-20T11:59:52;6.68;;;6.03;;
739;SDS011;354;42.694;23.336;2023-07-20T12:02:22;8.88;;;6.45;;
739;SDS011;354;42.694;23.336;2023-07-20T12:04:50;10.90;;;6.55;;
739;SDS011;354;42.694;23.336;2023-07-20T12:07:18;8.13;;;6.47;;
739;SDS011;354;42.694;23.336;2023-07-20T12:09:43;7.38;;;5.95;;
739;SDS011;354;42.694;23.336;2023-07-20T12:12:10;11.45;;;6.68;;
739;SDS011;354;42.694;23.336;2023-07-20T12:14:38;7.25;;;6.55;;
739;SDS011;354;42.694;23.336;2023-07-20T12:17:04;9.20;;;6.70;;
739;SDS011;354;42.694;23.336;2023-07-20T12:19:29;8.65;;;6.53;;
739;SDS011;354;42.694;23.336;2023-07-20T12:21:57;8.20;;;6.60;;
739;SDS011;354;42.694;23.336;2023-07-20T12:24:24;9.32;;;7.03;;
739;SDS011;354;42.694;23.336;2023-07-20T12:26:55;8.27;;;7.53;;
739;SDS011;354;42.694;23.336;2023-07-20T12:29:22;11.43;;;6.97;;
739;SDS011;354;42.694;23.336;2023-07-20T12:31:48;8.75;;;6.43;;
739;SDS011;354;42.694;23.336;2023-07-20T12:34:13;7.53;;;6.07;;
739;SDS011;354;42.694;23.336;2023-07-20T12:36:39;7.68;;;6.75;;
739;SDS011;354;42.694;23.336;2023-07-20T12:39:04;7.32;;;6.38;;
739;SDS011;354;42.694;23.336;2023-07-20T12:41:30;7.80;;;6.13;;
739;SDS011;354;42.694;23.336;2023-07-20T12:43:56;8.40;;;6.10;;
739;SDS011;354;42.694;23.336;2023-07-20T12:46:23;7.78;;;7.03;;
739;SDS011;354;42.694;23.336;2023-07-20T12:48:49;7.22;;;5.80;;
739;SDS011;354;42.694;23.336;2023-07-20T12:51:14;8.75;;;6.20;;
739;SDS011;354;42.694;23.336;2023-07-20T12:53:39;7.53;;;6.38;;
739;SDS011;354;42.694;23.336;2023-07-20T12:56:05;8.27;;;5.82;;
739;SDS011;354;42.694;23.336;2023-07-20T12:58:31;11.15;;;6.20;;
739;SDS011;354;42.694;23.336;2023-07-20T13:00:56;7.43;;;6.32;;
739;SDS011;354;42.694;23.336;2023-07-20T13:03:22;8.25;;;6.35;;
739;SDS011;354;42.694;23.336;2023-07-20T13:05:47;9.48;;;6.75;;
739;SDS011;354;42.694;23.336;2023-07-20T13:08:13;10.60;;;6.57;;
739;SDS011;354;42.694;23.336;2023-07-20T13:10:39;7.38;;;6.00;;
739;SDS011;354;42.694;23.336;2023-07-20T13:13:06;8.77;;;5.32;;
739;SDS011;354;42.694;23.336;2023-07-20T13:15:32;6.60;;;6.00;;
739;SDS011;354;42.694;23.336;2023-07-20T13:18:05;9.75;;;5.93;;
739;SDS011;354;42.694;23.336;2023-07-20T13:20:31;7.13;;;5.50;;
739;SDS011;354;42.694;23.336;2023-07-20T13:22:56;10.95;;;6.40;;
739;SDS011;354;42.694;23.336;2023-07-20T13:25:21;9.82;;;6.13;;
739;SDS011;354;42.694;23.336;2023-07-20T13:27:47;8.10;;;5.88;;
739;SDS011;354;42.694;23.336;2023-07-20T13:30:12;8.82;;;5.45;;
739;SDS011;354;42.694;23.336;2023-07-20T13:32:41;6.60;;;5.75;;
739;SDS011;354;42.694;23.336;2023-07-20T13:35:13;9.32;;;6.70;;
739;SDS011;354;42.694;23.336;2023-07-20T13:37:39;8.23;;;5.88;;
739;SDS011;354;42.694;23.336;2023-07-20T13:40:06;7.07;;;5.80;;
739;SDS011;354;42.694;23.336;2023-07-20T13:42:33;8.02;;;6.03;;
739;SDS011;354;42.694;23.336;2023-07-20T13:44:59;11.18;;;8.27;;
739;SDS011;354;42.694;23.336;2023-07-20T13:47:24;7.75;;;6.53;;
739;SDS011;354;42.694;23.336;2023-07-20T13:49:51;6.78;;;6.13;;
739;SDS011;354;42.694;23.336;2023-07-20T13:52:16;6.68;;;5.57;;
739;SDS011;354;42.694;23.336;2023-07-20T13:54:42;7.43;;;5.72;;
739;SDS011;354;42.694;23.336;2023-07-20T13:57:07;9.38;;;5.88;;
739;SDS011;354;42.694;23.336;2023-07-20T13:59:32;8.57;;;6.55;;
739;SDS011;354;42.694;23.336;2023-07-20T14:01:58;7.45;;;5.90;;
739;SDS011;354;42.694;23.336;2023-07-20T14:04:23;9.25;;;5.82;;
739;SDS011;354;42.694;23.336;2023-07-20T14:06:49;8.65;;;5.45;;
739;SDS011;354;42.694;23.336;2023-07-20T14:09:15;9.85;;;5.30;;
739;SDS011;354;42.694;23.336;2023-07-20T14:11:40;8.95;;;6.07;;
739;SDS011;354;42.694;23.336;2023-07-20T14:14:06;7.20;;;5.28;;
739;SDS011;354;42.694;23.336;2023-07-20T14:16:31;8.63;;;5.10;;
739;SDS011;354;42.694;23.336;2023-07-20T14:18:57;7.95;;;5.43;;
739;SDS011;354;42.694;23.336;2023-07-20T14:21:23;7.13;;;5.22;;
739;SDS011;354;42.694;23.336;2023-07-20T14:23:49;7.97;;;5.45;;
739;SDS011;354;42.694;23.336;2023-07-20T14:26:16;6.75;;;6.07;;
739;SDS011;354;42.694;23.336;2023-07-20T14:28:41;6.28;;;5.22;;
739;SDS011;354;42.694;23.336;2023-07-20T14:31:06;8.20;;;5.53;;
739;SDS011;354;42.694;23.336;2023-07-20T14:33:32;9.27;;;6.28;;
739;SDS011;354;42.694;23.336;2023-07-20T14:35:58;9.43;;;5.80;;
739;SDS011;354;42.694;23.336;2023-07-20T14:38:23;9.02;;;5.95;;
739;SDS011;354;42.694;23.336;2023-07-20T14:40:49;6.90;;;5.75;;
739;SDS011;354;42.694;23.336;2023-07-20T14:43:14;7.75;;;5.32;;
739;SDS011;354;42.694;23.336;2023-07-20T14:45:43;6.72;;;5.05;;
739;SDS011;354;42.694;23.336;2023-07-20T14:48:08;10.27;;;5.90;;
739;SDS011;354;42.694;23.336;2023-07-20T14:50:34;11.55;;;5.60;;
739;SDS011;354;42.694;23.336;2023-07-20T14:53:00;9.20;;;5.90;;
739;SDS011;354;42.694;23.336;2023-07-20T14:55:25;7.45;;;5.72;;
739;SDS011;354;42.694;23.336;2023-07-20T14:57:51;5.55;;;5.00;;
739;SDS011;354;42.694;23.336;2023-07-20T15:00:16;9.68;;;5.45;;
739;SDS011;354;42.694;23.336;2023-07-20T15:02:42;9.02;;;5.43;;
739;SDS011;354;42.694;23.336;2023-07-20T15:05:09;6.70;;;5.65;;
739;SDS011;354;42.694;23.336;2023-07-20T15:07:35;6.50;;;5.93;;
739;SDS011;354;42.694;23.336;2023-07-20T15:10:01;9.48;;;6.30;;
739;SDS011;354;42.694;23.336;2023-07-20T15:12:27;8.32;;;5.72;;
739;SDS011;354;42.694;23.336;2023-07-20T15:15:02;9.07;;;5.55;;
739;SDS011;354;42.694;23.336;2023-07-20T15:17:35;6.72;;;6.03;;
739;SDS011;354;42.694;23.336;2023-07-20T15:20:02;11.07;;;6.28;;
739;SDS011;354;42.694;23.336;2023-07-20T15:22:29;6.32;;;5.75;;
739;SDS011;354;42.694;23.336;2023-07-20T15:24:55;8.20;;;5.65;;
739;SDS011;354;42.694;23.336;2023-07-20T15:27:21;8.98;;;5.63;;
739;SDS011;354;42.694;23.336;2023-07-20T15:29:47;6.00;;;5.50;;
739;SDS011;354;42.694;23.336;2023-07-20T15:32:13;6.55;;;5.93;;
739;SDS011;354;42.694;23.336;2023-07-20T15:34:41;7.90;;;6.05;;
739;SDS011;354;42.694;23.336;2023-07-20T15:37:07;8.20;;;6.28;;